Saint Anne, Missouri
Current Conditions -  °F | °C
As of 5:51 PM on Saturday 22 Nov 2014 (Local Time) from KSTL Reporting Station
Light Rain Light Rain  
Wind Chill: 13°   Ceiling: 2200
Heat Index: 13°   Visibility: 8mi
Dew Point:   Wind: 5mph
Humidity: 77%   Direction: 180°S
Pressure: 29.95"   Gusts: NA
Location:  38.7263°N, 90.3885°W
Report Text: KSTL 222351Z 18004KT 8SM -RA BKN022 OVC080 13/09 A2995 RMK AO2 RAB37 SLP141 P0000 60004 T01330094 10156 20128 56008
Loading
Personal Weather Stations






























Interactive Weather Map New forecast layout! Learn more

10-Day Weather Forecast

Advertisements
Track Severe Weather on mobile